Aérodrome :
LOGIN :

S'inscrire | Disclaimer

   EN    FR    IT 

 










Légende :    VFR   VFR Marginal   IFR   IFR Intensif   IFR Très Intensif
Visi : 
Plafond : 
>= 8 km
>= 3000ft
5 à 8 km
1000 à 3000 ft
1500m à 5 km
500 à 1000 ft
800 à 1500m
200 à 500 ft
< 800m
< 200 ft
Symboles :   Orages  Brouillard  Fortes neiges  Fortes précipitations  Vent > 20 kt
SIGMETs :   Divers  Orages  Givrage  Turbulence  Onde Orograph.  Cendres Volcan.






- Altitude de l'aérodrome : 640 ft
- Code IATA : AOC


EDAC - Altenburg-Nobitz

DERNIER METAR :
  • 301520Z VRB02KT 9999 FEW030 18/10 Q1014

METARs EXPIRÉS :
  • 301450Z VRB02KT CAVOK 17/09 Q1014
  • 301420Z VRB02KT 9999 FEW031 18/10 Q1015
  • 301350Z 32004KT 290V010 9999 FEW030 17/10 Q1015
  • 301320Z VRB03KT 9999 SCT029 17/10 Q1015
  • 301250Z 23004KT 140V270 9999 FEW027 17/10 Q1015

TAF TAF EDAC
Valide du 30 à 15h jusqu'au 01 à 00h UTC


301400Z 3015/3024 VRB03KT 9999 SCT030
BECMG 3019/3023 2500 BCFG



MET'MAP, la Météo Aéronautique d'un coup d'oeil ! - Copyright ORBIFLY Décembre 2007 - Disclaimer

ORBIFLY MET'MAP TEAM :

Programmation & Développement : Alexandra Zaïnal
Sur une idée originale de : Baudouin d'Aumeries
Assistance à la programmation : Marc-Olivier Méhu
Soutien technique & logistique : Manuel Goepfert

Contact : metmap@orbifly.com




SOURCES & CREDITS :

   NOAA